createdAt,value
2022-08-20T00:01:19.502Z,19.94
2022-08-20T00:03:50.059Z,20.02
2022-08-20T00:06:21.853Z,20.01
2022-08-20T00:08:49.205Z,19.99
2022-08-20T00:11:25.167Z,19.95
2022-08-20T00:13:59.313Z,20.01
2022-08-20T00:16:29.754Z,20.06
2022-08-20T00:19:00.662Z,20.07
2022-08-20T00:21:28.266Z,20.10
2022-08-20T00:23:59.265Z,20.10
2022-08-20T00:26:26.453Z,20.13
2022-08-20T00:28:54.224Z,20.08
2022-08-20T00:31:23.420Z,20.05
2022-08-20T00:33:51.770Z,20.05
2022-08-20T00:36:21.525Z,20.06
2022-08-20T00:38:48.875Z,20.00
2022-08-20T00:41:22.510Z,19.97
2022-08-20T00:44:11.154Z,20.02
2022-08-20T00:46:40.248Z,19.97
2022-08-20T00:49:22.135Z,19.94
2022-08-20T00:51:59.096Z,20.01
2022-08-20T00:54:38.128Z,20.10
2022-08-20T00:57:10.674Z,20.11
2022-08-20T00:59:41.762Z,20.13
2022-08-20T01:02:13.311Z,20.16
2022-08-20T01:04:43.741Z,20.10
2022-08-20T01:07:10.894Z,20.22
2022-08-20T01:09:58.467Z,20.21
2022-08-20T01:12:29.123Z,20.22
2022-08-20T01:14:59.383Z,20.27
2022-08-20T01:17:32.549Z,20.29
2022-08-20T01:20:02.402Z,20.33
2022-08-20T01:23:01.066Z,20.38
2022-08-20T01:25:53.265Z,20.38
2022-08-20T01:28:25.170Z,20.34
2022-08-20T01:30:52.987Z,20.33
2022-08-20T01:33:22.499Z,20.37
2022-08-20T01:35:53.065Z,20.39
2022-08-20T01:38:21.780Z,20.43
2022-08-20T01:41:16.303Z,20.39
2022-08-20T01:43:46.761Z,20.39
2022-08-20T01:46:17.820Z,20.40
2022-08-20T01:48:49.894Z,20.40
2022-08-20T01:51:20.306Z,20.36
2022-08-20T01:53:53.396Z,20.40
2022-08-20T01:56:28.363Z,20.42
2022-08-20T01:58:59.116Z,20.38
2022-08-20T02:01:39.035Z,20.37
2022-08-20T02:04:15.469Z,20.26
2022-08-20T02:06:56.280Z,20.26
2022-08-20T02:09:35.513Z,20.30
2022-08-20T02:12:06.505Z,20.31
2022-08-20T02:14:33.875Z,20.30
2022-08-20T02:17:01.468Z,20.30
2022-08-20T02:19:34.724Z,20.31
2022-08-20T02:22:08.986Z,20.32
2022-08-20T02:24:36.143Z,20.29
2022-08-20T02:27:03.198Z,20.33
2022-08-20T02:29:30.340Z,20.35
2022-08-20T02:32:25.029Z,20.33
2022-08-20T02:34:47.057Z,20.35
2022-08-20T02:37:18.528Z,20.33
2022-08-20T02:39:47.118Z,20.32
2022-08-20T02:42:16.987Z,20.32
2022-08-20T02:44:44.780Z,20.33
2022-08-20T02:47:11.915Z,20.35
2022-08-20T02:49:38.917Z,20.37
2022-08-20T02:52:06.224Z,20.42
2022-08-20T02:54:36.074Z,20.41
2022-08-20T02:57:04.263Z,20.45
2022-08-20T02:59:34.071Z,20.51
2022-08-20T03:02:01.367Z,20.52
2022-08-20T03:04:30.452Z,20.53
2022-08-20T03:06:58.916Z,20.54
2022-08-20T03:09:28.105Z,20.56
2022-08-20T03:11:55.163Z,20.54
2022-08-20T03:14:22.406Z,20.57
2022-08-20T03:16:50.160Z,20.62
2022-08-20T03:19:17.153Z,20.61
2022-08-20T03:21:47.756Z,20.54
2022-08-20T03:24:14.871Z,20.50
2022-08-20T03:26:43.598Z,20.50
2022-08-20T03:29:11.265Z,20.47
2022-08-20T03:31:40.703Z,20.44
2022-08-20T03:34:07.670Z,20.42
2022-08-20T03:36:35.027Z,20.41
2022-08-20T03:39:05.989Z,20.39
2022-08-20T03:41:35.341Z,20.39
2022-08-20T03:44:06.937Z,20.37
2022-08-20T03:46:34.505Z,20.34
2022-08-20T03:49:01.850Z,20.31
2022-08-20T03:51:30.739Z,20.32
2022-08-20T03:53:58.473Z,20.31
2022-08-20T03:56:26.094Z,20.30
2022-08-20T03:58:53.341Z,20.23
2022-08-20T04:01:44.192Z,20.25
2022-08-20T04:04:12.184Z,20.26
2022-08-20T04:06:42.425Z,20.29
2022-08-20T04:09:11.691Z,20.28
2022-08-20T04:11:42.394Z,20.26
2022-08-20T04:14:18.446Z,20.30
2022-08-20T04:16:46.402Z,20.32
2022-08-20T04:19:18.558Z,20.35
2022-08-20T04:21:48.686Z,20.36
2022-08-20T04:24:21.922Z,20.35
2022-08-20T04:26:58.902Z,20.34
2022-08-20T04:29:32.439Z,20.33
2022-08-20T04:32:00.913Z,20.31
2022-08-20T04:34:33.320Z,20.30
2022-08-20T04:37:00.301Z,20.30
2022-08-20T04:39:27.318Z,20.30
2022-08-20T04:41:54.570Z,20.28
2022-08-20T04:44:22.796Z,20.30
2022-08-20T04:46:52.390Z,20.34
2022-08-20T04:49:26.384Z,20.39
2022-08-20T04:51:54.811Z,20.40
2022-08-20T04:54:24.370Z,20.41
2022-08-20T04:56:51.507Z,20.46
2022-08-20T04:59:18.414Z,20.45
2022-08-20T05:01:45.820Z,20.45
2022-08-20T05:04:12.830Z,20.48
2022-08-20T05:06:45.404Z,20.49
2022-08-20T05:09:12.517Z,20.53
2022-08-20T05:11:41.791Z,20.60
2022-08-20T05:14:09.655Z,20.59
2022-08-20T05:16:40.907Z,20.62
2022-08-20T05:19:10.747Z,20.65
2022-08-20T05:21:39.031Z,20.67
2022-08-20T05:24:06.961Z,20.68
2022-08-20T05:26:34.430Z,20.71
2022-08-20T05:29:04.356Z,20.78
2022-08-20T05:31:33.727Z,20.89
2022-08-20T05:34:10.701Z,21.04
2022-08-20T05:36:45.535Z,21.20
2022-08-20T05:39:16.677Z,21.27
2022-08-20T05:41:43.850Z,21.47
2022-08-20T05:44:13.674Z,21.62
2022-08-20T05:46:43.882Z,21.81
2022-08-20T05:49:16.858Z,21.93
2022-08-20T05:51:44.266Z,22.13
2022-08-20T05:54:12.333Z,22.11
2022-08-20T05:56:39.590Z,22.50
2022-08-20T05:59:09.162Z,22.76
2022-08-20T06:01:38.837Z,22.51
2022-08-20T06:04:25.074Z,22.47
2022-08-20T06:07:04.046Z,22.52
2022-08-20T06:09:32.626Z,22.31
2022-08-20T06:12:03.222Z,22.11
2022-08-20T06:14:31.405Z,22.06
2022-08-20T06:17:13.262Z,22.05
2022-08-20T06:19:41.682Z,22.03
2022-08-20T06:22:18.585Z,22.13
2022-08-20T06:24:53.357Z,22.20
2022-08-20T06:27:21.288Z,22.57
2022-08-20T06:29:51.043Z,22.92
2022-08-20T06:32:19.846Z,23.23
2022-08-20T06:34:56.062Z,23.48
2022-08-20T06:37:31.766Z,23.54
2022-08-20T06:40:13.542Z,23.74
2022-08-20T06:42:47.762Z,24.13
2022-08-20T06:45:24.551Z,24.35
2022-08-20T06:47:58.276Z,25.34
2022-08-20T06:50:30.639Z,26.38
2022-08-20T06:53:00.127Z,26.70
2022-08-20T06:55:27.592Z,26.70
2022-08-20T06:58:03.855Z,26.67
2022-08-20T07:00:33.366Z,26.71
2022-08-20T07:03:02.297Z,26.42
2022-08-20T07:05:31.696Z,25.59
2022-08-20T07:07:59.498Z,24.68
2022-08-20T07:10:27.739Z,24.76
2022-08-20T07:12:54.902Z,24.52
2022-08-20T07:15:23.826Z,24.49
2022-08-20T07:17:55.490Z,25.06
2022-08-20T07:20:25.221Z,24.98
2022-08-20T07:22:55.466Z,25.16
2022-08-20T07:25:23.711Z,26.17
2022-08-20T07:27:53.284Z,26.58
2022-08-20T07:30:56.746Z,26.42
2022-08-20T07:33:29.955Z,26.48
2022-08-20T07:35:59.286Z,26.41
2022-08-20T07:38:30.143Z,25.86
2022-08-20T07:41:05.072Z,25.15
2022-08-20T07:43:34.770Z,24.67
2022-08-20T07:46:03.343Z,24.67
2022-08-20T07:48:32.113Z,24.92
2022-08-20T07:51:03.825Z,25.40
2022-08-20T07:53:35.830Z,25.55
2022-08-20T07:56:11.321Z,25.82
2022-08-20T07:58:42.134Z,26.17
2022-08-20T08:01:12.241Z,26.85
2022-08-20T08:03:49.647Z,27.47
2022-08-20T08:06:29.295Z,28.43
2022-08-20T08:09:02.706Z,29.64
2022-08-20T08:11:33.308Z,30.13
2022-08-20T08:14:00.404Z,30.56
2022-08-20T08:16:28.931Z,30.97
2022-08-20T08:19:02.125Z,31.34
2022-08-20T08:21:31.160Z,29.93
2022-08-20T08:23:58.730Z,30.51
2022-08-20T08:26:29.037Z,31.57
2022-08-20T08:28:58.248Z,32.04
2022-08-20T08:31:26.290Z,31.15
2022-08-20T08:33:53.930Z,30.81
2022-08-20T08:36:21.194Z,30.76
2022-08-20T08:38:48.973Z,30.82
2022-08-20T08:41:50.199Z,30.91
2022-08-20T08:44:28.900Z,30.83
2022-08-20T08:47:13.799Z,30.10
2022-08-20T08:49:40.913Z,29.98
2022-08-20T08:52:29.074Z,28.44
2022-08-20T08:55:00.154Z,28.34
2022-08-20T08:57:27.548Z,27.88
2022-08-20T09:00:05.019Z,27.29
2022-08-20T09:02:35.480Z,27.21
2022-08-20T09:05:13.478Z,27.01
2022-08-20T09:07:45.651Z,26.37
2022-08-20T09:10:15.210Z,25.82
2022-08-20T09:12:47.088Z,25.48
2022-08-20T09:15:15.650Z,25.58
2022-08-20T09:17:42.628Z,25.48
2022-08-20T09:20:10.633Z,25.37
2022-08-20T09:22:37.894Z,25.26
2022-08-20T09:25:05.487Z,25.35
2022-08-20T09:27:32.879Z,25.72
2022-08-20T09:30:00.313Z,25.75
2022-08-20T09:32:27.841Z,26.04
2022-08-20T09:34:56.729Z,26.26
2022-08-20T09:37:26.891Z,26.81
2022-08-20T09:39:54.134Z,27.12
2022-08-20T09:42:25.997Z,26.94
2022-08-20T09:44:53.553Z,26.57
2022-08-20T09:47:23.224Z,26.58
2022-08-20T09:49:50.446Z,26.85
2022-08-20T09:52:27.124Z,26.81
2022-08-20T09:55:06.219Z,26.96
2022-08-20T09:57:34.751Z,27.24
2022-08-20T10:00:09.954Z,27.25
2022-08-20T10:02:40.894Z,27.66
2022-08-20T10:05:09.309Z,27.67
2022-08-20T10:07:40.126Z,28.40
2022-08-20T10:10:09.799Z,28.42
2022-08-20T10:12:36.791Z,28.59
2022-08-20T10:15:04.727Z,28.94
2022-08-20T10:17:31.949Z,28.95
2022-08-20T10:20:03.686Z,28.76
2022-08-20T10:22:32.837Z,28.58
2022-08-20T10:25:03.516Z,28.76
2022-08-20T10:27:30.790Z,28.98
2022-08-20T10:29:57.893Z,28.78
2022-08-20T10:32:25.217Z,28.89
2022-08-20T10:34:52.273Z,28.58
2022-08-20T10:37:22.494Z,28.41
2022-08-20T10:39:49.744Z,28.31
2022-08-20T10:42:16.814Z,27.91
2022-08-20T10:44:43.932Z,27.86
2022-08-20T10:47:19.794Z,27.62
2022-08-20T10:49:48.383Z,27.68
2022-08-20T10:52:15.904Z,27.91
2022-08-20T10:54:46.460Z,27.80
2022-08-20T10:57:24.024Z,27.35
2022-08-20T10:59:53.329Z,27.07
2022-08-20T11:02:21.548Z,26.73
2022-08-20T11:04:49.109Z,26.99
2022-08-20T11:07:18.420Z,26.71
2022-08-20T11:09:47.531Z,26.34
2022-08-20T11:12:15.463Z,26.33
2022-08-20T11:14:42.667Z,26.23
2022-08-20T11:17:10.596Z,25.68
2022-08-20T11:19:45.576Z,25.51
2022-08-20T11:22:12.653Z,25.37
2022-08-20T11:24:42.565Z,25.18
2022-08-20T11:27:32.321Z,25.21
2022-08-20T11:30:02.168Z,25.29
2022-08-20T11:32:31.612Z,25.40
2022-08-20T11:34:58.629Z,25.37
2022-08-20T11:37:26.097Z,25.23
2022-08-20T11:39:53.399Z,25.22
2022-08-20T11:42:20.835Z,24.88
2022-08-20T11:44:47.831Z,24.87
2022-08-20T11:47:24.347Z,24.74
2022-08-20T11:50:11.002Z,24.55
2022-08-20T11:52:38.765Z,24.39
2022-08-20T11:55:08.131Z,24.28
2022-08-20T11:57:39.243Z,24.28
2022-08-20T12:00:14.613Z,24.00
2022-08-20T12:02:42.514Z,23.86
2022-08-20T12:05:11.485Z,23.63
2022-08-20T12:07:39.011Z,23.53
2022-08-20T12:10:07.556Z,23.47
2022-08-20T12:12:34.794Z,23.62
2022-08-20T12:15:01.780Z,23.65
2022-08-20T12:17:30.482Z,23.71
2022-08-20T12:20:02.666Z,23.54
2022-08-20T12:22:29.627Z,23.48
2022-08-20T12:24:57.072Z,23.33
2022-08-20T12:27:30.085Z,23.12
2022-08-20T12:29:59.666Z,22.98
2022-08-20T12:32:31.655Z,22.89
2022-08-20T12:34:59.156Z,22.84
2022-08-20T12:37:30.446Z,22.80
2022-08-20T12:39:59.857Z,22.96
2022-08-20T12:42:29.259Z,22.95
2022-08-20T12:44:57.372Z,23.04
2022-08-20T12:47:29.922Z,23.08
2022-08-20T12:50:07.340Z,23.28
2022-08-20T12:52:37.746Z,23.38
2022-08-20T12:55:06.945Z,23.29
2022-08-20T12:57:41.932Z,23.24
2022-08-20T13:00:16.830Z,23.20
2022-08-20T13:02:45.620Z,23.30
2022-08-20T13:05:13.800Z,23.29
2022-08-20T13:07:41.907Z,23.26
2022-08-20T13:10:18.347Z,23.14
2022-08-20T13:12:45.789Z,23.03
2022-08-20T13:15:16.064Z,23.00
2022-08-20T13:17:43.375Z,22.89
2022-08-20T13:20:15.363Z,22.83
2022-08-20T13:22:43.169Z,22.95
2022-08-20T13:25:14.011Z,22.89
2022-08-20T13:27:43.212Z,22.85
2022-08-20T13:30:15.989Z,22.75
2022-08-20T13:32:43.456Z,22.83
2022-08-20T13:35:11.840Z,22.90
2022-08-20T13:37:41.290Z,22.92
2022-08-20T13:40:09.700Z,22.96
2022-08-20T13:42:37.068Z,22.95
2022-08-20T13:45:06.034Z,23.02
2022-08-20T13:47:37.205Z,23.09
2022-08-20T13:50:15.266Z,23.03
2022-08-20T13:52:43.451Z,23.01
2022-08-20T13:55:13.554Z,23.01
2022-08-20T13:57:45.114Z,23.06
2022-08-20T14:00:20.339Z,23.03
2022-08-20T14:02:49.988Z,23.03
2022-08-20T14:05:17.806Z,23.06
2022-08-20T14:07:47.802Z,23.08
2022-08-20T14:10:21.968Z,23.25
2022-08-20T14:12:49.795Z,23.27
2022-08-20T14:15:17.863Z,23.24
2022-08-20T14:17:53.892Z,23.25
2022-08-20T14:20:24.455Z,23.21
2022-08-20T14:22:56.734Z,23.21
2022-08-20T14:25:25.919Z,23.08
2022-08-20T14:27:55.932Z,23.10
2022-08-20T14:30:27.512Z,23.08
2022-08-20T14:32:55.225Z,22.92
2022-08-20T14:35:23.214Z,22.94
2022-08-20T14:37:52.402Z,22.85
2022-08-20T14:40:26.456Z,22.98
2022-08-20T14:42:54.285Z,22.82
2022-08-20T14:45:22.868Z,22.75
2022-08-20T14:47:54.894Z,22.81
2022-08-20T14:50:29.307Z,22.71
2022-08-20T14:52:59.870Z,22.58
2022-08-20T14:55:30.474Z,22.63
2022-08-20T14:58:01.770Z,22.58
2022-08-20T15:00:30.957Z,22.39
2022-08-20T15:02:58.165Z,22.28
2022-08-20T15:05:26.040Z,22.13
2022-08-20T15:07:56.393Z,22.07
2022-08-20T15:10:27.338Z,22.05
2022-08-20T15:12:57.753Z,21.90
2022-08-20T15:15:25.450Z,21.83
2022-08-20T15:17:56.436Z,21.74
2022-08-20T15:20:29.507Z,21.73
2022-08-20T15:22:59.283Z,21.71
2022-08-20T15:25:37.071Z,21.65
2022-08-20T15:28:06.433Z,21.67
2022-08-20T15:30:33.844Z,21.68
2022-08-20T15:33:01.347Z,21.67
2022-08-20T15:35:29.192Z,21.67
2022-08-20T15:37:58.527Z,21.66
2022-08-20T15:40:28.986Z,21.65
2022-08-20T15:42:57.706Z,21.63
2022-08-20T15:45:27.784Z,21.59
2022-08-20T15:48:04.861Z,21.57
2022-08-20T15:50:48.262Z,21.49
2022-08-20T15:53:31.933Z,21.46
2022-08-20T15:56:21.551Z,21.47
2022-08-20T15:59:20.012Z,21.47
2022-08-20T16:02:14.981Z,21.47
2022-08-20T16:05:09.603Z,21.43
2022-08-20T16:08:01.144Z,21.40
2022-08-20T16:10:45.136Z,21.40
2022-08-20T16:13:25.897Z,21.40
2022-08-20T16:15:59.628Z,21.35
2022-08-20T16:18:34.895Z,21.31
2022-08-20T16:21:08.146Z,21.30
2022-08-20T16:23:38.520Z,21.31
2022-08-20T16:26:30.334Z,21.22
2022-08-20T16:29:11.301Z,21.22
2022-08-20T16:32:03.279Z,21.18
2022-08-20T16:34:37.712Z,21.21
2022-08-20T16:37:26.084Z,21.18
2022-08-20T16:40:27.290Z,21.13
2022-08-20T16:42:59.111Z,21.11
2022-08-20T16:45:28.686Z,21.07
2022-08-20T16:48:01.756Z,21.08
2022-08-20T16:50:34.874Z,21.09
2022-08-20T16:53:01.863Z,21.06
2022-08-20T16:55:29.186Z,21.03
2022-08-20T16:57:56.710Z,21.02
2022-08-20T17:00:44.918Z,21.03
2022-08-20T17:03:39.192Z,21.01
2022-08-20T17:06:17.218Z,20.97
2022-08-20T17:08:49.750Z,20.98
2022-08-20T17:11:29.159Z,20.97
2022-08-20T17:14:25.778Z,20.99
2022-08-20T17:16:53.164Z,20.97
2022-08-20T17:19:28.094Z,20.97
2022-08-20T17:21:56.855Z,20.93
2022-08-20T17:24:28.229Z,20.94
2022-08-20T17:27:00.112Z,20.91
2022-08-20T17:29:30.850Z,20.89
2022-08-20T17:32:07.794Z,20.84
2022-08-20T17:34:48.715Z,20.83
2022-08-20T17:37:23.353Z,20.80
2022-08-20T17:39:55.087Z,20.78
2022-08-20T17:42:26.102Z,20.70
2022-08-20T17:45:01.667Z,20.68
2022-08-20T17:47:32.576Z,20.66
2022-08-20T17:50:15.265Z,20.63
2022-08-20T17:52:57.587Z,20.62
2022-08-20T17:55:26.485Z,20.60
2022-08-20T17:58:02.850Z,20.59
2022-08-20T18:00:31.076Z,20.60
2022-08-20T18:03:11.584Z,20.56
2022-08-20T18:05:39.650Z,20.55
2022-08-20T18:08:19.622Z,20.52
2022-08-20T18:11:06.113Z,20.49
2022-08-20T18:14:07.796Z,20.50
2022-08-20T18:16:43.814Z,20.50
2022-08-20T18:19:26.766Z,20.46
2022-08-20T18:22:07.057Z,20.42
2022-08-20T18:24:56.898Z,20.41
2022-08-20T18:27:28.389Z,20.39
2022-08-20T18:30:00.789Z,20.36
2022-08-20T18:32:37.763Z,20.35
2022-08-20T18:35:38.808Z,20.32
2022-08-20T18:38:29.025Z,20.32
2022-08-20T18:41:55.314Z,20.28
2022-08-20T18:44:35.032Z,20.25
2022-08-20T18:47:07.506Z,20.24
2022-08-20T18:49:40.023Z,20.20
2022-08-20T18:52:26.421Z,20.13
2022-08-20T18:54:56.961Z,20.12
2022-08-20T18:57:30.534Z,20.07
2022-08-20T19:00:14.348Z,20.02
2022-08-20T19:03:15.156Z,20.00
2022-08-20T19:05:45.464Z,19.97
2022-08-20T19:08:17.728Z,19.96
2022-08-20T19:11:12.364Z,19.99
2022-08-20T19:14:08.985Z,19.97
2022-08-20T19:16:45.708Z,19.98
2022-08-20T19:19:20.314Z,19.99
2022-08-20T19:21:48.449Z,19.98
2022-08-20T19:24:25.312Z,19.99
2022-08-20T19:26:56.647Z,19.98
2022-08-20T19:29:30.624Z,19.96
2022-08-20T19:32:00.616Z,19.94
2022-08-20T19:34:31.628Z,19.95
2022-08-20T19:37:27.882Z,19.96
2022-08-20T19:39:52.167Z,19.96
2022-08-20T19:42:29.545Z,19.95
2022-08-20T19:45:37.473Z,19.94
2022-08-20T19:48:37.230Z,19.91
2022-08-20T19:51:27.732Z,19.86
2022-08-20T19:53:55.401Z,19.83
2022-08-20T19:56:25.537Z,19.81
2022-08-20T19:59:09.527Z,19.84
2022-08-20T20:01:37.205Z,19.83
2022-08-20T20:04:07.086Z,19.79
2022-08-20T20:06:43.400Z,19.76
2022-08-20T20:09:16.493Z,19.76
2022-08-20T20:11:53.122Z,19.72
2022-08-20T20:14:24.094Z,19.74
2022-08-20T20:16:52.617Z,19.75
2022-08-20T20:19:28.062Z,19.73
2022-08-20T20:22:19.920Z,19.74
2022-08-20T20:25:07.868Z,19.74
2022-08-20T20:27:36.839Z,19.71
2022-08-20T20:30:14.145Z,19.73
2022-08-20T20:32:50.050Z,19.71
2022-08-20T20:35:27.851Z,19.69
2022-08-20T20:38:04.866Z,19.68
2022-08-20T20:41:02.608Z,19.70
2022-08-20T20:43:34.048Z,19.69
2022-08-20T20:46:10.716Z,19.68
2022-08-20T20:48:51.399Z,19.69
2022-08-20T20:51:36.331Z,19.70
2022-08-20T20:54:21.115Z,19.68
2022-08-20T20:57:04.986Z,19.68
2022-08-20T20:59:35.601Z,19.68
2022-08-20T21:02:03.509Z,19.66
2022-08-20T21:04:30.894Z,19.67
2022-08-20T21:07:05.015Z,19.66
2022-08-20T21:09:33.607Z,19.66
2022-08-20T21:12:01.170Z,19.64
2022-08-20T21:14:28.245Z,19.62
2022-08-20T21:16:58.522Z,19.54
2022-08-20T21:19:26.012Z,19.46
2022-08-20T21:21:53.202Z,19.40
2022-08-20T21:24:22.498Z,19.37
2022-08-20T21:26:50.713Z,19.32
2022-08-20T21:29:32.156Z,19.21
2022-08-20T21:32:00.762Z,19.09
2022-08-20T21:34:28.101Z,19.01
2022-08-20T21:36:55.662Z,18.93
2022-08-20T21:39:25.134Z,18.79
2022-08-20T21:41:52.089Z,18.64
2022-08-20T21:44:29.762Z,18.56
2022-08-20T21:46:58.350Z,18.51
2022-08-20T21:49:27.371Z,18.40
2022-08-20T21:51:55.956Z,18.34
2022-08-20T21:54:24.434Z,18.28
2022-08-20T21:56:59.736Z,18.20
2022-08-20T21:59:29.025Z,18.08
2022-08-20T22:01:58.735Z,18.04
2022-08-20T22:04:25.984Z,17.97
2022-08-20T22:06:53.893Z,17.92
2022-08-20T22:09:21.239Z,17.92
2022-08-20T22:11:53.892Z,17.94
2022-08-20T22:14:22.742Z,17.91
2022-08-20T22:16:49.767Z,17.88
2022-08-20T22:19:16.836Z,17.86
2022-08-20T22:21:44.581Z,17.88
2022-08-20T22:24:13.696Z,17.88
2022-08-20T22:26:41.670Z,17.87
2022-08-20T22:29:10.771Z,17.84
2022-08-20T22:31:43.118Z,17.84
2022-08-20T22:34:13.404Z,17.87
2022-08-20T22:36:43.115Z,17.89
2022-08-20T22:39:10.800Z,17.90
2022-08-20T22:41:41.314Z,17.90
2022-08-20T22:44:08.536Z,17.89
2022-08-20T22:46:41.499Z,17.92
2022-08-20T22:49:13.041Z,17.92
2022-08-20T22:51:43.245Z,17.95
2022-08-20T22:54:16.662Z,17.93
2022-08-20T22:56:43.857Z,17.95
2022-08-20T22:59:10.878Z,17.94
2022-08-20T23:01:38.563Z,17.97
2022-08-20T23:04:27.436Z,17.97
2022-08-20T23:06:56.365Z,17.92
2022-08-20T23:09:24.404Z,17.90
2022-08-20T23:11:51.862Z,17.89
2022-08-20T23:14:19.363Z,17.87
2022-08-20T23:16:51.880Z,17.86
2022-08-20T23:19:21.827Z,17.81
2022-08-20T23:21:50.969Z,17.82
2022-08-20T23:24:19.252Z,17.81
2022-08-20T23:26:52.687Z,17.81
2022-08-20T23:29:25.273Z,17.79
2022-08-20T23:31:55.063Z,17.81
2022-08-20T23:34:22.571Z,17.80
2022-08-20T23:36:52.594Z,17.77
2022-08-20T23:39:20.617Z,17.76
2022-08-20T23:41:48.267Z,17.76
2022-08-20T23:44:25.737Z,17.75
2022-08-20T23:46:57.284Z,17.77
2022-08-20T23:49:24.956Z,17.73
2022-08-20T23:51:54.990Z,17.66
2022-08-20T23:54:22.268Z,17.60
2022-08-20T23:56:51.643Z,17.59
2022-08-20T23:59:24.633Z,17.56
